sensor_id;sensor_type;location;lat;lon;timestamp;P1;durP1;ratioP1;P2;durP2;ratioP2
27127;SDS011;14660;49.008;8.390;2023-03-19T00:00:35;9.18;;;4.82;;
27127;SDS011;14660;49.008;8.390;2023-03-19T00:03:01;8.80;;;4.05;;
27127;SDS011;14660;49.008;8.390;2023-03-19T00:05:28;9.77;;;4.45;;
27127;SDS011;14660;49.008;8.390;2023-03-19T00:07:55;7.32;;;4.68;;
27127;SDS011;14660;49.008;8.390;2023-03-19T00:10:22;10.85;;;5.68;;
27127;SDS011;14660;49.008;8.390;2023-03-19T00:12:49;8.45;;;4.97;;
27127;SDS011;14660;49.008;8.390;2023-03-19T00:15:16;6.90;;;4.70;;
27127;SDS011;14660;49.008;8.390;2023-03-19T00:17:43;12.90;;;6.07;;
27127;SDS011;14660;49.008;8.390;2023-03-19T00:20:11;12.48;;;5.45;;
27127;SDS011;14660;49.008;8.390;2023-03-19T00:22:40;7.80;;;5.30;;
27127;SDS011;14660;49.008;8.390;2023-03-19T00:25:07;9.18;;;5.13;;
27127;SDS011;14660;49.008;8.390;2023-03-19T00:27:36;7.97;;;5.03;;
27127;SDS011;14660;49.008;8.390;2023-03-19T00:30:04;9.82;;;4.85;;
27127;SDS011;14660;49.008;8.390;2023-03-19T00:32:32;7.60;;;4.22;;
27127;SDS011;14660;49.008;8.390;2023-03-19T00:35:02;6.03;;;4.50;;
27127;SDS011;14660;49.008;8.390;2023-03-19T00:37:34;11.90;;;5.10;;
27127;SDS011;14660;49.008;8.390;2023-03-19T00:40:02;8.88;;;4.70;;
27127;SDS011;14660;49.008;8.390;2023-03-19T00:42:30;6.60;;;4.43;;
27127;SDS011;14660;49.008;8.390;2023-03-19T00:44:57;6.90;;;4.53;;
27127;SDS011;14660;49.008;8.390;2023-03-19T00:47:24;5.97;;;4.03;;
27127;SDS011;14660;49.008;8.390;2023-03-19T00:49:52;9.10;;;4.38;;
27127;SDS011;14660;49.008;8.390;2023-03-19T00:52:19;7.43;;;4.97;;
27127;SDS011;14660;49.008;8.390;2023-03-19T00:54:45;7.93;;;4.53;;
27127;SDS011;14660;49.008;8.390;2023-03-19T00:57:13;7.60;;;4.22;;
27127;SDS011;14660;49.008;8.390;2023-03-19T00:59:40;4.70;;;3.80;;
27127;SDS011;14660;49.008;8.390;2023-03-19T01:02:07;8.82;;;3.25;;
27127;SDS011;14660;49.008;8.390;2023-03-19T01:04:34;6.38;;;3.95;;
27127;SDS011;14660;49.008;8.390;2023-03-19T01:06:59;7.78;;;3.63;;
27127;SDS011;14660;49.008;8.390;2023-03-19T01:09:27;6.80;;;3.35;;
27127;SDS011;14660;49.008;8.390;2023-03-19T01:11:54;5.07;;;3.00;;
27127;SDS011;14660;49.008;8.390;2023-03-19T01:14:21;6.95;;;3.85;;
27127;SDS011;14660;49.008;8.390;2023-03-19T01:16:50;11.40;;;3.83;;
27127;SDS011;14660;49.008;8.390;2023-03-19T01:19:17;3.70;;;3.30;;
27127;SDS011;14660;49.008;8.390;2023-03-19T01:21:44;8.70;;;3.28;;
27127;SDS011;14660;49.008;8.390;2023-03-19T01:24:12;5.88;;;3.90;;
27127;SDS011;14660;49.008;8.390;2023-03-19T01:26:37;7.00;;;3.53;;
27127;SDS011;14660;49.008;8.390;2023-03-19T01:29:04;9.65;;;3.13;;
27127;SDS011;14660;49.008;8.390;2023-03-19T01:31:32;5.47;;;3.20;;
27127;SDS011;14660;49.008;8.390;2023-03-19T01:33:58;9.50;;;3.72;;
27127;SDS011;14660;49.008;8.390;2023-03-19T01:36:26;4.57;;;3.28;;
27127;SDS011;14660;49.008;8.390;2023-03-19T01:38:54;4.68;;;2.83;;
27127;SDS011;14660;49.008;8.390;2023-03-19T01:41:21;3.95;;;2.75;;
27127;SDS011;14660;49.008;8.390;2023-03-19T01:43:49;6.07;;;3.05;;
27127;SDS011;14660;49.008;8.390;2023-03-19T01:49:04;4.72;;;2.67;;
27127;SDS011;14660;49.008;8.390;2023-03-19T01:51:33;6.90;;;3.92;;
27127;SDS011;14660;49.008;8.390;2023-03-19T01:54:06;5.38;;;2.90;;
27127;SDS011;14660;49.008;8.390;2023-03-19T01:56:37;4.57;;;3.00;;
27127;SDS011;14660;49.008;8.390;2023-03-19T01:59:10;5.20;;;3.42;;
27127;SDS011;14660;49.008;8.390;2023-03-19T02:01:49;4.43;;;2.80;;
27127;SDS011;14660;49.008;8.390;2023-03-19T02:04:50;5.60;;;3.13;;
27127;SDS011;14660;49.008;8.390;2023-03-19T02:07:22;3.75;;;3.03;;
27127;SDS011;14660;49.008;8.390;2023-03-19T02:09:49;5.82;;;2.80;;
27127;SDS011;14660;49.008;8.390;2023-03-19T02:12:17;7.07;;;2.97;;
27127;SDS011;14660;49.008;8.390;2023-03-19T02:14:44;7.78;;;3.58;;
27127;SDS011;14660;49.008;8.390;2023-03-19T02:17:11;6.00;;;2.70;;
27127;SDS011;14660;49.008;8.390;2023-03-19T02:19:48;4.65;;;2.90;;
27127;SDS011;14660;49.008;8.390;2023-03-19T02:22:17;4.10;;;3.47;;
27127;SDS011;14660;49.008;8.390;2023-03-19T02:24:55;6.15;;;2.97;;
27127;SDS011;14660;49.008;8.390;2023-03-19T02:27:40;6.13;;;3.50;;
27127;SDS011;14660;49.008;8.390;2023-03-19T02:32:56;5.55;;;2.90;;
27127;SDS011;14660;49.008;8.390;2023-03-19T02:35:24;5.32;;;3.15;;
27127;SDS011;14660;49.008;8.390;2023-03-19T02:37:54;4.60;;;3.00;;
27127;SDS011;14660;49.008;8.390;2023-03-19T02:40:21;5.47;;;2.90;;
27127;SDS011;14660;49.008;8.390;2023-03-19T02:42:52;7.13;;;3.40;;
27127;SDS011;14660;49.008;8.390;2023-03-19T02:45:20;5.25;;;2.45;;
27127;SDS011;14660;49.008;8.390;2023-03-19T02:47:47;4.93;;;2.60;;
27127;SDS011;14660;49.008;8.390;2023-03-19T02:50:15;5.90;;;2.85;;
27127;SDS011;14660;49.008;8.390;2023-03-19T02:52:42;4.18;;;2.63;;
27127;SDS011;14660;49.008;8.390;2023-03-19T02:55:09;5.97;;;3.50;;
27127;SDS011;14660;49.008;8.390;2023-03-19T02:57:36;4.13;;;2.58;;
27127;SDS011;14660;49.008;8.390;2023-03-19T03:00:04;5.43;;;2.92;;
27127;SDS011;14660;49.008;8.390;2023-03-19T03:02:32;4.75;;;2.67;;
27127;SDS011;14660;49.008;8.390;2023-03-19T03:04:59;4.60;;;3.30;;
27127;SDS011;14660;49.008;8.390;2023-03-19T03:07:26;4.78;;;2.60;;
27127;SDS011;14660;49.008;8.390;2023-03-19T03:09:54;5.43;;;2.92;;
27127;SDS011;14660;49.008;8.390;2023-03-19T03:12:20;3.13;;;2.15;;
27127;SDS011;14660;49.008;8.390;2023-03-19T03:14:47;4.45;;;2.40;;
27127;SDS011;14660;49.008;8.390;2023-03-19T03:17:14;6.10;;;3.45;;
27127;SDS011;14660;49.008;8.390;2023-03-19T03:19:42;4.68;;;2.88;;
27127;SDS011;14660;49.008;8.390;2023-03-19T03:22:08;4.72;;;3.05;;
27127;SDS011;14660;49.008;8.390;2023-03-19T03:24:35;4.88;;;2.97;;
27127;SDS011;14660;49.008;8.390;2023-03-19T03:27:05;2.90;;;2.17;;
27127;SDS011;14660;49.008;8.390;2023-03-19T03:29:32;4.90;;;2.65;;
27127;SDS011;14660;49.008;8.390;2023-03-19T03:31:58;5.82;;;2.92;;
27127;SDS011;14660;49.008;8.390;2023-03-19T03:34:26;5.47;;;2.92;;
27127;SDS011;14660;49.008;8.390;2023-03-19T03:36:53;4.22;;;2.60;;
27127;SDS011;14660;49.008;8.390;2023-03-19T03:39:21;8.18;;;3.78;;
27127;SDS011;14660;49.008;8.390;2023-03-19T03:41:48;5.35;;;3.13;;
27127;SDS011;14660;49.008;8.390;2023-03-19T03:44:14;5.75;;;3.20;;
27127;SDS011;14660;49.008;8.390;2023-03-19T03:46:41;3.78;;;2.60;;
27127;SDS011;14660;49.008;8.390;2023-03-19T03:49:08;5.35;;;3.00;;
27127;SDS011;14660;49.008;8.390;2023-03-19T03:51:35;5.88;;;2.70;;
27127;SDS011;14660;49.008;8.390;2023-03-19T03:54:02;6.28;;;3.03;;
27127;SDS011;14660;49.008;8.390;2023-03-19T03:56:28;6.93;;;3.33;;
27127;SDS011;14660;49.008;8.390;2023-03-19T03:58:57;12.07;;;3.92;;
27127;SDS011;14660;49.008;8.390;2023-03-19T04:01:24;9.45;;;3.08;;
27127;SDS011;14660;49.008;8.390;2023-03-19T04:03:50;5.78;;;3.40;;
27127;SDS011;14660;49.008;8.390;2023-03-19T04:06:17;3.53;;;2.78;;
27127;SDS011;14660;49.008;8.390;2023-03-19T04:08:46;4.97;;;3.58;;
27127;SDS011;14660;49.008;8.390;2023-03-19T04:11:13;4.30;;;2.83;;
27127;SDS011;14660;49.008;8.390;2023-03-19T04:13:40;4.65;;;2.75;;
27127;SDS011;14660;49.008;8.390;2023-03-19T04:16:08;3.83;;;2.88;;
27127;SDS011;14660;49.008;8.390;2023-03-19T04:18:36;4.45;;;2.70;;
27127;SDS011;14660;49.008;8.390;2023-03-19T04:21:04;5.88;;;3.47;;
27127;SDS011;14660;49.008;8.390;2023-03-19T04:23:31;5.35;;;2.95;;
27127;SDS011;14660;49.008;8.390;2023-03-19T04:26:02;6.70;;;3.35;;
27127;SDS011;14660;49.008;8.390;2023-03-19T04:28:29;4.60;;;3.00;;
27127;SDS011;14660;49.008;8.390;2023-03-19T04:30:59;5.25;;;3.50;;
27127;SDS011;14660;49.008;8.390;2023-03-19T04:33:29;4.78;;;2.67;;
27127;SDS011;14660;49.008;8.390;2023-03-19T04:35:57;6.07;;;3.03;;
27127;SDS011;14660;49.008;8.390;2023-03-19T04:38:24;5.03;;;3.10;;
27127;SDS011;14660;49.008;8.390;2023-03-19T04:40:54;4.80;;;3.40;;
27127;SDS011;14660;49.008;8.390;2023-03-19T04:43:22;5.57;;;2.58;;
27127;SDS011;14660;49.008;8.390;2023-03-19T04:45:49;5.97;;;3.58;;
27127;SDS011;14660;49.008;8.390;2023-03-19T04:48:17;4.60;;;2.78;;
27127;SDS011;14660;49.008;8.390;2023-03-19T04:50:47;3.83;;;2.75;;
27127;SDS011;14660;49.008;8.390;2023-03-19T04:53:17;5.50;;;3.15;;
27127;SDS011;14660;49.008;8.390;2023-03-19T04:55:47;5.65;;;3.00;;
27127;SDS011;14660;49.008;8.390;2023-03-19T04:58:16;3.88;;;3.00;;
27127;SDS011;14660;49.008;8.390;2023-03-19T05:00:44;6.95;;;2.63;;
27127;SDS011;14660;49.008;8.390;2023-03-19T05:03:13;4.93;;;2.97;;
27127;SDS011;14660;49.008;8.390;2023-03-19T05:05:41;6.32;;;3.08;;
27127;SDS011;14660;49.008;8.390;2023-03-19T05:08:08;6.10;;;2.67;;
27127;SDS011;14660;49.008;8.390;2023-03-19T05:10:35;7.10;;;3.25;;
27127;SDS011;14660;49.008;8.390;2023-03-19T05:13:03;3.63;;;2.83;;
27127;SDS011;14660;49.008;8.390;2023-03-19T05:15:30;5.50;;;3.10;;
27127;SDS011;14660;49.008;8.390;2023-03-19T05:17:57;9.80;;;4.18;;
27127;SDS011;14660;49.008;8.390;2023-03-19T05:20:24;5.05;;;2.72;;
27127;SDS011;14660;49.008;8.390;2023-03-19T05:22:51;6.53;;;2.95;;
27127;SDS011;14660;49.008;8.390;2023-03-19T05:25:21;4.85;;;2.65;;
27127;SDS011;14660;49.008;8.390;2023-03-19T05:27:48;4.25;;;2.63;;
27127;SDS011;14660;49.008;8.390;2023-03-19T05:30:15;5.43;;;2.80;;
27127;SDS011;14660;49.008;8.390;2023-03-19T05:32:43;4.32;;;2.97;;
27127;SDS011;14660;49.008;8.390;2023-03-19T05:35:10;3.78;;;2.80;;
27127;SDS011;14660;49.008;8.390;2023-03-19T05:37:39;4.93;;;3.10;;
27127;SDS011;14660;49.008;8.390;2023-03-19T05:40:07;4.13;;;2.78;;
27127;SDS011;14660;49.008;8.390;2023-03-19T05:42:34;7.20;;;3.70;;
27127;SDS011;14660;49.008;8.390;2023-03-19T05:45:01;5.55;;;2.85;;
27127;SDS011;14660;49.008;8.390;2023-03-19T05:47:28;7.25;;;3.42;;
27127;SDS011;14660;49.008;8.390;2023-03-19T05:49:56;5.28;;;3.30;;
27127;SDS011;14660;49.008;8.390;2023-03-19T05:52:23;6.60;;;3.38;;
27127;SDS011;14660;49.008;8.390;2023-03-19T05:54:50;7.13;;;3.33;;
27127;SDS011;14660;49.008;8.390;2023-03-19T05:57:18;5.80;;;3.10;;
27127;SDS011;14660;49.008;8.390;2023-03-19T05:59:46;5.22;;;3.42;;
27127;SDS011;14660;49.008;8.390;2023-03-19T06:02:16;5.40;;;3.47;;
27127;SDS011;14660;49.008;8.390;2023-03-19T06:04:43;6.03;;;3.25;;
27127;SDS011;14660;49.008;8.390;2023-03-19T06:07:09;4.57;;;3.35;;
27127;SDS011;14660;49.008;8.390;2023-03-19T06:09:37;5.75;;;2.90;;
27127;SDS011;14660;49.008;8.390;2023-03-19T06:12:06;6.15;;;2.80;;
27127;SDS011;14660;49.008;8.390;2023-03-19T06:14:33;4.65;;;2.83;;
27127;SDS011;14660;49.008;8.390;2023-03-19T06:17:00;4.97;;;3.20;;
27127;SDS011;14660;49.008;8.390;2023-03-19T06:19:29;4.80;;;3.03;;
27127;SDS011;14660;49.008;8.390;2023-03-19T06:21:56;6.40;;;3.20;;
27127;SDS011;14660;49.008;8.390;2023-03-19T06:24:22;5.30;;;3.28;;
27127;SDS011;14660;49.008;8.390;2023-03-19T06:26:49;5.07;;;3.30;;
27127;SDS011;14660;49.008;8.390;2023-03-19T06:29:16;5.18;;;2.97;;
27127;SDS011;14660;49.008;8.390;2023-03-19T06:31:43;5.28;;;2.70;;
27127;SDS011;14660;49.008;8.390;2023-03-19T06:34:10;3.95;;;3.15;;
27127;SDS011;14660;49.008;8.390;2023-03-19T06:36:37;7.45;;;3.45;;
27127;SDS011;14660;49.008;8.390;2023-03-19T06:39:05;5.00;;;2.83;;
27127;SDS011;14660;49.008;8.390;2023-03-19T06:41:31;4.47;;;3.03;;
27127;SDS011;14660;49.008;8.390;2023-03-19T06:43:58;4.53;;;3.47;;
27127;SDS011;14660;49.008;8.390;2023-03-19T06:46:26;5.47;;;3.40;;
27127;SDS011;14660;49.008;8.390;2023-03-19T06:48:53;4.60;;;3.33;;
27127;SDS011;14660;49.008;8.390;2023-03-19T06:51:19;6.20;;;2.92;;
27127;SDS011;14660;49.008;8.390;2023-03-19T06:53:47;4.45;;;3.15;;
27127;SDS011;14660;49.008;8.390;2023-03-19T06:56:14;5.13;;;3.10;;
27127;SDS011;14660;49.008;8.390;2023-03-19T06:58:40;5.53;;;3.38;;
27127;SDS011;14660;49.008;8.390;2023-03-19T07:01:07;7.32;;;3.30;;
27127;SDS011;14660;49.008;8.390;2023-03-19T07:03:36;4.85;;;3.17;;
27127;SDS011;14660;49.008;8.390;2023-03-19T07:06:02;4.25;;;3.28;;
27127;SDS011;14660;49.008;8.390;2023-03-19T07:08:29;2.25;;;2.05;;
27127;SDS011;14660;49.008;8.390;2023-03-19T07:11:02;6.53;;;2.78;;
27127;SDS011;14660;49.008;8.390;2023-03-19T07:13:34;5.07;;;2.83;;
27127;SDS011;14660;49.008;8.390;2023-03-19T07:16:04;7.53;;;3.15;;
27127;SDS011;14660;49.008;8.390;2023-03-19T07:18:31;7.43;;;3.25;;
27127;SDS011;14660;49.008;8.390;2023-03-19T07:20:59;5.85;;;3.22;;
27127;SDS011;14660;49.008;8.390;2023-03-19T07:23:25;5.13;;;3.35;;
27127;SDS011;14660;49.008;8.390;2023-03-19T07:25:53;5.68;;;2.67;;
27127;SDS011;14660;49.008;8.390;2023-03-19T07:28:20;6.68;;;3.05;;
27127;SDS011;14660;49.008;8.390;2023-03-19T07:30:50;3.70;;;2.80;;
27127;SDS011;14660;49.008;8.390;2023-03-19T07:33:18;3.90;;;2.63;;
27127;SDS011;14660;49.008;8.390;2023-03-19T07:35:48;4.68;;;2.90;;
27127;SDS011;14660;49.008;8.390;2023-03-19T07:38:15;7.72;;;3.00;;
27127;SDS011;14660;49.008;8.390;2023-03-19T07:40:42;5.47;;;2.67;;
27127;SDS011;14660;49.008;8.390;2023-03-19T07:43:09;7.13;;;3.25;;
27127;SDS011;14660;49.008;8.390;2023-03-19T07:45:36;6.88;;;3.15;;
27127;SDS011;14660;49.008;8.390;2023-03-19T07:48:06;6.53;;;3.47;;
27127;SDS011;14660;49.008;8.390;2023-03-19T07:50:33;5.30;;;3.30;;
27127;SDS011;14660;49.008;8.390;2023-03-19T07:52:59;8.52;;;3.20;;
27127;SDS011;14660;49.008;8.390;2023-03-19T07:55:26;3.78;;;2.33;;
27127;SDS011;14660;49.008;8.390;2023-03-19T07:57:53;7.60;;;3.03;;
27127;SDS011;14660;49.008;8.390;2023-03-19T08:00:19;3.72;;;2.50;;
27127;SDS011;14660;49.008;8.390;2023-03-19T08:02:47;5.45;;;2.78;;
27127;SDS011;14660;49.008;8.390;2023-03-19T08:05:14;3.65;;;2.70;;
27127;SDS011;14660;49.008;8.390;2023-03-19T08:07:41;7.18;;;2.97;;
27127;SDS011;14660;49.008;8.390;2023-03-19T08:10:10;5.45;;;2.70;;
27127;SDS011;14660;49.008;8.390;2023-03-19T08:12:37;5.38;;;3.20;;
27127;SDS011;14660;49.008;8.390;2023-03-19T08:15:07;4.20;;;2.75;;
27127;SDS011;14660;49.008;8.390;2023-03-19T08:17:37;4.82;;;3.08;;
27127;SDS011;14660;49.008;8.390;2023-03-19T08:20:06;5.55;;;2.85;;
27127;SDS011;14660;49.008;8.390;2023-03-19T08:22:36;4.57;;;2.67;;
27127;SDS011;14660;49.008;8.390;2023-03-19T08:25:04;5.88;;;2.60;;
27127;SDS011;14660;49.008;8.390;2023-03-19T08:27:32;5.43;;;3.03;;
27127;SDS011;14660;49.008;8.390;2023-03-19T08:30:02;4.85;;;2.92;;
27127;SDS011;14660;49.008;8.390;2023-03-19T08:32:30;3.08;;;2.22;;
27127;SDS011;14660;49.008;8.390;2023-03-19T08:34:57;2.65;;;2.05;;
27127;SDS011;14660;49.008;8.390;2023-03-19T08:37:24;6.03;;;2.70;;
27127;SDS011;14660;49.008;8.390;2023-03-19T08:39:52;2.72;;;2.15;;
27127;SDS011;14660;49.008;8.390;2023-03-19T08:42:19;3.33;;;2.63;;
27127;SDS011;14660;49.008;8.390;2023-03-19T08:44:47;4.60;;;2.38;;
27127;SDS011;14660;49.008;8.390;2023-03-19T08:47:14;5.15;;;2.28;;
27127;SDS011;14660;49.008;8.390;2023-03-19T08:49:43;3.53;;;2.10;;
27127;SDS011;14660;49.008;8.390;2023-03-19T08:52:11;4.60;;;2.88;;
27127;SDS011;14660;49.008;8.390;2023-03-19T08:54:38;3.50;;;2.35;;
27127;SDS011;14660;49.008;8.390;2023-03-19T08:57:05;4.45;;;2.15;;
27127;SDS011;14660;49.008;8.390;2023-03-19T08:59:32;3.92;;;1.77;;
27127;SDS011;14660;49.008;8.390;2023-03-19T09:01:59;3.67;;;2.25;;
27127;SDS011;14660;49.008;8.390;2023-03-19T09:04:26;2.42;;;2.10;;
27127;SDS011;14660;49.008;8.390;2023-03-19T09:06:53;4.18;;;2.08;;
27127;SDS011;14660;49.008;8.390;2023-03-19T09:09:22;4.55;;;1.90;;
27127;SDS011;14660;49.008;8.390;2023-03-19T09:12:13;3.90;;;1.80;;
27127;SDS011;14660;49.008;8.390;2023-03-19T09:14:41;6.05;;;2.08;;
27127;SDS011;14660;49.008;8.390;2023-03-19T09:17:09;3.72;;;2.08;;
27127;SDS011;14660;49.008;8.390;2023-03-19T09:19:36;4.80;;;2.17;;
27127;SDS011;14660;49.008;8.390;2023-03-19T09:22:03;3.63;;;2.10;;
27127;SDS011;14660;49.008;8.390;2023-03-19T09:24:31;4.68;;;2.20;;
27127;SDS011;14660;49.008;8.390;2023-03-19T09:26:58;4.22;;;1.95;;
27127;SDS011;14660;49.008;8.390;2023-03-19T09:29:25;4.22;;;1.92;;
27127;SDS011;14660;49.008;8.390;2023-03-19T09:31:52;5.47;;;2.40;;
27127;SDS011;14660;49.008;8.390;2023-03-19T09:34:19;2.80;;;2.00;;
27127;SDS011;14660;49.008;8.390;2023-03-19T09:36:46;2.33;;;1.65;;
27127;SDS011;14660;49.008;8.390;2023-03-19T09:39:14;3.92;;;2.15;;
27127;SDS011;14660;49.008;8.390;2023-03-19T09:44:49;3.22;;;2.28;;
27127;SDS011;14660;49.008;8.390;2023-03-19T09:50:15;2.92;;;2.30;;
27127;SDS011;14660;49.008;8.390;2023-03-19T09:52:50;5.38;;;2.25;;
27127;SDS011;14660;49.008;8.390;2023-03-19T09:55:51;2.65;;;1.83;;
27127;SDS011;14660;49.008;8.390;2023-03-19T09:58:19;3.17;;;2.00;;
27127;SDS011;14660;49.008;8.390;2023-03-19T10:00:49;3.53;;;1.77;;
27127;SDS011;14660;49.008;8.390;2023-03-19T10:06:34;3.33;;;1.83;;
27127;SDS011;14660;49.008;8.390;2023-03-19T10:23:58;3.83;;;1.77;;
27127;SDS011;14660;49.008;8.390;2023-03-19T10:26:39;3.28;;;2.28;;
27127;SDS011;14660;49.008;8.390;2023-03-19T10:35:00;7.63;;;2.28;;
27127;SDS011;14660;49.008;8.390;2023-03-19T10:37:37;2.55;;;1.83;;
27127;SDS011;14660;49.008;8.390;2023-03-19T10:40:05;5.22;;;1.77;;
27127;SDS011;14660;49.008;8.390;2023-03-19T10:42:46;4.47;;;1.85;;
27127;SDS011;14660;49.008;8.390;2023-03-19T10:48:14;5.97;;;2.15;;
27127;SDS011;14660;49.008;8.390;2023-03-19T10:53:34;2.15;;;1.50;;
27127;SDS011;14660;49.008;8.390;2023-03-19T11:01:45;1.65;;;1.45;;
27127;SDS011;14660;49.008;8.390;2023-03-19T11:04:19;2.83;;;1.67;;
27127;SDS011;14660;49.008;8.390;2023-03-19T11:07:02;3.50;;;1.90;;
27127;SDS011;14660;49.008;8.390;2023-03-19T11:09:35;3.78;;;1.60;;
27127;SDS011;14660;49.008;8.390;2023-03-19T11:15:16;5.10;;;1.98;;
27127;SDS011;14660;49.008;8.390;2023-03-19T11:23:15;6.93;;;2.40;;
27127;SDS011;14660;49.008;8.390;2023-03-19T11:25:52;2.15;;;1.60;;
27127;SDS011;14660;49.008;8.390;2023-03-19T11:28:24;4.82;;;2.63;;
27127;SDS011;14660;49.008;8.390;2023-03-19T11:48:20;3.70;;;3.13;;
27127;SDS011;14660;49.008;8.390;2023-03-19T12:12:23;6.68;;;2.35;;
27127;SDS011;14660;49.008;8.390;2023-03-19T12:33:47;4.55;;;2.25;;
27127;SDS011;14660;49.008;8.390;2023-03-19T12:36:25;4.50;;;2.10;;
27127;SDS011;14660;49.008;8.390;2023-03-19T12:39:13;4.20;;;1.95;;
27127;SDS011;14660;49.008;8.390;2023-03-19T12:41:44;7.35;;;2.38;;
27127;SDS011;14660;49.008;8.390;2023-03-19T12:50:00;3.97;;;2.20;;
27127;SDS011;14660;49.008;8.390;2023-03-19T12:52:47;4.32;;;2.10;;
27127;SDS011;14660;49.008;8.390;2023-03-19T12:55:32;5.43;;;2.58;;
27127;SDS011;14660;49.008;8.390;2023-03-19T13:01:09;3.55;;;2.28;;
27127;SDS011;14660;49.008;8.390;2023-03-19T13:06:36;6.57;;;4.55;;
27127;SDS011;14660;49.008;8.390;2023-03-19T13:09:12;5.22;;;2.47;;
27127;SDS011;14660;49.008;8.390;2023-03-19T13:12:31;4.15;;;2.80;;
27127;SDS011;14660;49.008;8.390;2023-03-19T13:26:55;7.63;;;2.80;;
27127;SDS011;14660;49.008;8.390;2023-03-19T13:29:27;11.20;;;2.67;;
27127;SDS011;14660;49.008;8.390;2023-03-19T13:32:06;4.50;;;2.10;;
27127;SDS011;14660;49.008;8.390;2023-03-19T13:34:46;3.63;;;2.72;;
27127;SDS011;14660;49.008;8.390;2023-03-19T13:37:14;3.70;;;2.35;;
27127;SDS011;14660;49.008;8.390;2023-03-19T13:39:44;4.65;;;3.42;;
27127;SDS011;14660;49.008;8.390;2023-03-19T13:48:33;5.35;;;2.72;;
27127;SDS011;14660;49.008;8.390;2023-03-19T13:54:19;6.60;;;2.67;;
27127;SDS011;14660;49.008;8.390;2023-03-19T14:00:52;3.33;;;2.53;;
27127;SDS011;14660;49.008;8.390;2023-03-19T14:05:56;4.15;;;2.70;;
27127;SDS011;14660;49.008;8.390;2023-03-19T14:08:28;6.20;;;3.60;;
27127;SDS011;14660;49.008;8.390;2023-03-19T14:11:23;6.28;;;2.65;;
27127;SDS011;14660;49.008;8.390;2023-03-19T14:13:54;4.85;;;2.13;;
27127;SDS011;14660;49.008;8.390;2023-03-19T14:16:25;3.42;;;2.20;;
27127;SDS011;14660;49.008;8.390;2023-03-19T14:18:58;3.67;;;2.40;;
27127;SDS011;14660;49.008;8.390;2023-03-19T14:21:42;5.22;;;3.80;;
27127;SDS011;14660;49.008;8.390;2023-03-19T14:27:32;4.82;;;2.60;;
27127;SDS011;14660;49.008;8.390;2023-03-19T14:30:10;4.88;;;2.70;;
27127;SDS011;14660;49.008;8.390;2023-03-19T14:33:01;5.95;;;3.03;;
27127;SDS011;14660;49.008;8.390;2023-03-19T14:35:49;4.47;;;3.05;;
27127;SDS011;14660;49.008;8.390;2023-03-19T14:41:01;6.43;;;2.63;;
27127;SDS011;14660;49.008;8.390;2023-03-19T14:55:45;6.15;;;2.28;;
27127;SDS011;14660;49.008;8.390;2023-03-19T14:58:18;2.63;;;2.08;;
27127;SDS011;14660;49.008;8.390;2023-03-19T15:00:46;4.45;;;2.70;;
27127;SDS011;14660;49.008;8.390;2023-03-19T15:03:19;3.92;;;2.42;;
27127;SDS011;14660;49.008;8.390;2023-03-19T15:05:58;5.70;;;2.57;;
27127;SDS011;14660;49.008;8.390;2023-03-19T15:08:27;4.53;;;2.05;;
27127;SDS011;14660;49.008;8.390;2023-03-19T15:19:50;3.63;;;2.00;;
27127;SDS011;14660;49.008;8.390;2023-03-19T15:25:10;4.32;;;2.30;;
27127;SDS011;14660;49.008;8.390;2023-03-19T15:27:39;1.67;;;1.45;;
27127;SDS011;14660;49.008;8.390;2023-03-19T15:30:18;2.42;;;1.90;;
27127;SDS011;14660;49.008;8.390;2023-03-19T15:32:45;3.28;;;2.90;;
27127;SDS011;14660;49.008;8.390;2023-03-19T15:35:12;2.95;;;2.65;;
27127;SDS011;14660;49.008;8.390;2023-03-19T15:37:41;5.68;;;2.38;;
27127;SDS011;14660;49.008;8.390;2023-03-19T15:40:10;4.40;;;2.58;;
27127;SDS011;14660;49.008;8.390;2023-03-19T15:42:39;4.72;;;2.38;;
27127;SDS011;14660;49.008;8.390;2023-03-19T15:45:09;3.20;;;2.60;;
27127;SDS011;14660;49.008;8.390;2023-03-19T15:47:42;3.13;;;1.88;;
27127;SDS011;14660;49.008;8.390;2023-03-19T15:50:29;4.32;;;1.90;;
27127;SDS011;14660;49.008;8.390;2023-03-19T15:53:02;4.75;;;1.63;;
27127;SDS011;14660;49.008;8.390;2023-03-19T15:55:34;3.92;;;2.13;;
27127;SDS011;14660;49.008;8.390;2023-03-19T15:58:05;2.53;;;2.03;;
27127;SDS011;14660;49.008;8.390;2023-03-19T16:03:03;3.60;;;2.55;;
27127;SDS011;14660;49.008;8.390;2023-03-19T16:05:32;3.45;;;2.15;;
27127;SDS011;14660;49.008;8.390;2023-03-19T16:07:59;3.47;;;2.78;;
27127;SDS011;14660;49.008;8.390;2023-03-19T16:18:57;3.72;;;2.20;;
27127;SDS011;14660;49.008;8.390;2023-03-19T16:24:22;2.42;;;1.95;;
27127;SDS011;14660;49.008;8.390;2023-03-19T16:27:00;7.10;;;2.40;;
27127;SDS011;14660;49.008;8.390;2023-03-19T16:29:31;6.22;;;2.30;;
27127;SDS011;14660;49.008;8.390;2023-03-19T16:32:26;3.10;;;1.40;;
27127;SDS011;14660;49.008;8.390;2023-03-19T16:35:15;4.93;;;2.38;;
27127;SDS011;14660;49.008;8.390;2023-03-19T16:37:49;4.80;;;1.55;;
27127;SDS011;14660;49.008;8.390;2023-03-19T16:43:20;7.38;;;3.83;;
27127;SDS011;14660;49.008;8.390;2023-03-19T16:46:07;8.15;;;4.72;;
27127;SDS011;14660;49.008;8.390;2023-03-19T16:48:37;6.55;;;2.78;;
27127;SDS011;14660;49.008;8.390;2023-03-19T16:51:26;5.10;;;2.35;;
27127;SDS011;14660;49.008;8.390;2023-03-19T16:53:52;3.35;;;2.55;;
27127;SDS011;14660;49.008;8.390;2023-03-19T16:56:18;4.45;;;3.35;;
27127;SDS011;14660;49.008;8.390;2023-03-19T16:58:45;4.78;;;2.80;;
27127;SDS011;14660;49.008;8.390;2023-03-19T17:01:17;5.93;;;4.00;;
27127;SDS011;14660;49.008;8.390;2023-03-19T17:03:46;6.20;;;3.10;;
27127;SDS011;14660;49.008;8.390;2023-03-19T17:06:15;5.88;;;3.40;;
27127;SDS011;14660;49.008;8.390;2023-03-19T17:08:42;4.28;;;2.35;;
27127;SDS011;14660;49.008;8.390;2023-03-19T17:11:15;4.03;;;2.67;;
27127;SDS011;14660;49.008;8.390;2023-03-19T17:14:00;2.42;;;1.25;;
27127;SDS011;14660;49.008;8.390;2023-03-19T17:16:32;2.35;;;1.23;;
27127;SDS011;14660;49.008;8.390;2023-03-19T17:19:11;3.60;;;1.35;;
27127;SDS011;14660;49.008;8.390;2023-03-19T17:21:50;4.65;;;2.55;;
27127;SDS011;14660;49.008;8.390;2023-03-19T17:27:09;5.43;;;1.90;;
27127;SDS011;14660;49.008;8.390;2023-03-19T17:29:35;2.22;;;1.42;;
27127;SDS011;14660;49.008;8.390;2023-03-19T17:32:03;1.98;;;1.42;;
27127;SDS011;14660;49.008;8.390;2023-03-19T17:34:41;3.75;;;2.53;;
27127;SDS011;14660;49.008;8.390;2023-03-19T17:37:12;1.88;;;1.48;;
27127;SDS011;14660;49.008;8.390;2023-03-19T17:39:38;3.30;;;2.25;;
27127;SDS011;14660;49.008;8.390;2023-03-19T17:42:21;4.32;;;2.38;;
27127;SDS011;14660;49.008;8.390;2023-03-19T17:44:49;2.78;;;2.30;;
27127;SDS011;14660;49.008;8.390;2023-03-19T17:47:16;6.93;;;4.15;;
27127;SDS011;14660;49.008;8.390;2023-03-19T17:49:44;6.15;;;3.65;;
27127;SDS011;14660;49.008;8.390;2023-03-19T17:52:16;3.45;;;2.38;;
27127;SDS011;14660;49.008;8.390;2023-03-19T17:54:44;5.00;;;2.67;;
27127;SDS011;14660;49.008;8.390;2023-03-19T17:57:14;5.97;;;3.72;;
27127;SDS011;14660;49.008;8.390;2023-03-19T17:59:41;5.25;;;2.70;;
27127;SDS011;14660;49.008;8.390;2023-03-19T18:04:56;7.43;;;4.45;;
27127;SDS011;14660;49.008;8.390;2023-03-19T18:07:24;4.68;;;3.08;;
27127;SDS011;14660;49.008;8.390;2023-03-19T18:09:50;6.55;;;4.80;;
27127;SDS011;14660;49.008;8.390;2023-03-19T18:12:19;5.70;;;3.50;;
27127;SDS011;14660;49.008;8.390;2023-03-19T18:14:47;4.47;;;2.97;;
27127;SDS011;14660;49.008;8.390;2023-03-19T18:17:15;5.03;;;3.00;;
27127;SDS011;14660;49.008;8.390;2023-03-19T18:19:44;4.13;;;3.08;;
27127;SDS011;14660;49.008;8.390;2023-03-19T18:22:15;6.80;;;3.95;;
27127;SDS011;14660;49.008;8.390;2023-03-19T18:24:43;3.72;;;3.10;;
27127;SDS011;14660;49.008;8.390;2023-03-19T18:27:10;3.38;;;2.58;;
27127;SDS011;14660;49.008;8.390;2023-03-19T18:29:37;4.60;;;2.35;;